Time;durP1;ratioP1;P1;durP2;ratioP2;P2;SDS_P1;SDS_P2;PMS_P1;PMS_P2;Temp;Humidity;BMP_temperature;BMP_pressure;BME280_temperature;BME280_humidity;BME280_pressure;Samples;Min_cycle;Max_cycle;Signal;HPM_P1;HPM_P2
2021/09/07 00:00:26;;;;;;;2.85;2.63;;;24.00;45.30;;;;;;5030637;28;20253;-39
2021/09/07 00:02:52;;;;;;;3.08;2.78;;;24.00;45.30;;;;;;5031402;28;20209;-41
2021/09/07 00:05:19;;;;;;;3.05;2.78;;;23.90;45.20;;;;;;5029797;28;20238;-39
2021/09/07 00:07:45;;;;;;;3.00;2.70;;;24.00;45.30;;;;;;5030337;28;20325;-39
2021/09/07 00:10:12;;;;;;;2.65;2.45;;;23.90;45.30;;;;;;5031483;28;20208;-41
2021/09/07 00:12:38;;;;;;;3.25;2.95;;;24.00;45.30;;;;;;5030997;28;20294;-40
2021/09/07 00:15:05;;;;;;;3.15;2.85;;;24.00;45.30;;;;;;5044986;23;20226;-40
2021/09/07 00:17:31;;;;;;;3.28;2.83;;;24.00;45.30;;;;;;5029853;28;20213;-38
2021/09/07 00:19:57;;;;;;;3.10;2.78;;;24.00;45.30;;;;;;5030276;28;20533;-38
2021/09/07 00:22:24;;;;;;;2.80;2.58;;;24.00;45.30;;;;;;5030165;28;20198;-37
2021/09/07 00:24:50;;;;;;;3.28;2.97;;;23.90;45.20;;;;;;5029375;28;20234;-40
2021/09/07 00:27:17;;;;;;;3.70;2.92;;;24.00;45.30;;;;;;5028697;28;20205;-37
2021/09/07 00:29:43;;;;;;;3.47;3.17;;;23.90;45.20;;;;;;5030552;28;20256;-37
2021/09/07 00:32:10;;;;;;;3.65;3.33;;;24.00;45.30;;;;;;5030384;28;20205;-38
2021/09/07 00:34:36;;;;;;;3.03;2.83;;;23.90;45.20;;;;;;5030027;28;20229;-37
2021/09/07 00:37:03;;;;;;;2.97;2.70;;;23.90;45.30;;;;;;5029586;28;20217;-37
2021/09/07 00:39:29;;;;;;;3.25;2.95;;;23.90;45.20;;;;;;5013886;28;20670;-37
2021/09/07 00:41:55;;;;;;;3.20;2.90;;;23.90;45.20;;;;;;5029760;28;20673;-37
2021/09/07 00:44:23;;;;;;;3.60;3.28;;;24.00;45.30;;;;;;5030748;28;20309;-38
2021/09/07 00:46:49;;;;;;;3.28;2.97;;;23.90;45.20;;;;;;5029434;28;20252;-39
2021/09/07 00:49:16;;;;;;;2.92;2.72;;;24.00;45.40;;;;;;5030794;28;20206;-39
2021/09/07 00:51:42;;;;;;;3.03;2.83;;;23.90;45.30;;;;;;5029375;28;20210;-39
2021/09/07 00:54:09;;;;;;;3.53;3.22;;;23.90;45.30;;;;;;5028262;28;20254;-41
2021/09/07 00:56:35;;;;;;;3.25;2.95;;;23.90;45.20;;;;;;5030061;28;20305;-37
2021/09/07 00:59:02;;;;;;;3.25;2.97;;;23.90;45.20;;;;;;5016576;28;20209;-37
2021/09/07 01:01:28;;;;;;;4.10;2.92;;;23.90;45.20;;;;;;5030941;28;20202;-37
2021/09/07 01:03:55;;;;;;;2.90;2.70;;;23.90;45.30;;;;;;5029141;28;20231;-42
2021/09/07 01:06:21;;;;;;;6.28;2.90;;;23.90;45.30;;;;;;5029987;28;20221;-39
2021/09/07 01:08:48;;;;;;;3.15;2.85;;;23.90;45.30;;;;;;5028551;28;20208;-43
2021/09/07 01:11:18;;;;;;;4.40;3.10;;;23.90;45.30;;;;;;5029638;28;20202;-40
2021/09/07 01:13:44;;;;;;;3.22;2.60;;;23.90;45.30;;;;;;5029342;28;20214;-37
2021/09/07 01:16:11;;;;;;;3.10;2.67;;;23.90;45.30;;;;;;5030439;28;20201;-39
2021/09/07 01:18:37;;;;;;;3.50;2.97;;;23.90;45.40;;;;;;5028202;28;20663;-41
2021/09/07 01:21:09;;;;;;;2.80;2.60;;;23.90;45.50;;;;;;5029452;28;20208;-46
2021/09/07 01:23:35;;;;;;;2.90;2.60;;;23.90;46.10;;;;;;5029501;28;20191;-42
2021/09/07 01:26:02;;;;;;;3.08;2.78;;;23.90;45.40;;;;;;5028688;28;20236;-47
2021/09/07 01:28:29;;;;;;;2.85;2.65;;;23.90;45.50;;;;;;5027532;28;20281;-37
2021/09/07 01:30:56;;;;;;;3.50;3.20;;;23.90;45.40;;;;;;5030458;28;20206;-41
2021/09/07 01:33:22;;;;;;;3.05;2.85;;;23.90;45.40;;;;;;5028638;28;20203;-41
2021/09/07 01:35:48;;;;;;;3.22;3.00;;;23.90;45.40;;;;;;5034236;28;20218;-37
2021/09/07 01:38:15;;;;;;;3.10;2.80;;;23.90;45.40;;;;;;5032172;28;20195;-44
2021/09/07 01:40:41;;;;;;;2.75;2.55;;;23.90;45.40;;;;;;5034315;28;20202;-37
2021/09/07 01:43:08;;;;;;;2.92;2.72;;;23.90;45.40;;;;;;5033406;28;20208;-40
2021/09/07 01:45:34;;;;;;;3.40;2.90;;;23.90;45.40;;;;;;5033612;28;20252;-41
2021/09/07 01:48:01;;;;;;;2.80;2.60;;;23.90;45.40;;;;;;5033269;28;20208;-38
2021/09/07 01:50:27;;;;;;;3.10;2.80;;;23.90;45.40;;;;;;5034613;28;20285;-37
2021/09/07 01:52:54;;;;;;;3.10;2.70;;;23.90;45.40;;;;;;5032786;28;20205;-39
2021/09/07 01:55:20;;;;;;;3.30;3.00;;;23.90;45.40;;;;;;5032411;28;20218;-38
2021/09/07 01:57:47;;;;;;;3.00;2.67;;;23.90;45.40;;;;;;5032606;28;20205;-40
2021/09/07 02:00:14;;;;;;;3.10;2.80;;;23.90;45.40;;;;;;5033924;28;20202;-38
2021/09/07 02:02:41;;;;;;;3.05;2.80;;;23.90;45.40;;;;;;5032967;28;20230;-37
2021/09/07 02:05:08;;;;;;;2.85;2.47;;;23.90;45.40;;;;;;5032045;28;20269;-40
2021/09/07 02:07:34;;;;;;;3.30;2.60;;;23.90;45.40;;;;;;5032839;28;20198;-39
2021/09/07 02:10:01;;;;;;;3.35;2.90;;;23.90;45.40;;;;;;5032167;28;20225;-37
2021/09/07 02:12:27;;;;;;;2.92;2.72;;;23.90;45.40;;;;;;5032111;28;20199;-37
2021/09/07 02:14:54;;;;;;;2.83;2.60;;;23.90;45.40;;;;;;5032154;28;20242;-42
2021/09/07 02:17:20;;;;;;;2.75;2.55;;;23.90;45.40;;;;;;5032729;28;20563;-40
2021/09/07 02:19:47;;;;;;;3.28;2.97;;;23.90;45.40;;;;;;5033321;28;20617;-39
2021/09/07 02:22:13;;;;;;;3.03;2.72;;;23.90;45.40;;;;;;5033218;28;20598;-37
2021/09/07 02:24:40;;;;;;;2.65;2.45;;;23.90;45.40;;;;;;5033960;28;20534;-38
2021/09/07 02:27:06;;;;;;;2.90;2.70;;;23.90;45.40;;;;;;5031278;28;20693;-37
2021/09/07 02:29:32;;;;;;;3.13;2.88;;;23.90;45.40;;;;;;5033408;28;20198;-38
2021/09/07 02:31:59;;;;;;;3.17;2.92;;;23.90;45.40;;;;;;5030615;28;20604;-44
2021/09/07 02:34:25;;;;;;;3.33;3.03;;;23.90;45.40;;;;;;5033318;28;20643;-38
2021/09/07 02:36:52;;;;;;;3.03;2.72;;;23.90;45.40;;;;;;5031593;28;20663;-39
2021/09/07 02:39:18;;;;;;;2.85;2.65;;;23.90;45.40;;;;;;5032992;28;20216;-40
2021/09/07 02:41:45;;;;;;;3.20;2.90;;;23.90;45.40;;;;;;5031134;28;20217;-36
2021/09/07 02:44:11;;;;;;;3.13;2.83;;;23.90;45.40;;;;;;5032955;28;20584;-37
2021/09/07 02:46:38;;;;;;;3.50;3.20;;;23.90;45.40;;;;;;5029845;28;20724;-36
2021/09/07 02:49:04;;;;;;;3.00;2.67;;;23.90;45.40;;;;;;5033058;28;20199;-36
2021/09/07 02:51:30;;;;;;;2.72;2.53;;;23.90;45.40;;;;;;5032338;28;20202;-40
2021/09/07 02:53:57;;;;;;;3.10;2.80;;;23.90;45.40;;;;;;5032539;28;20229;-38
2021/09/07 02:56:23;;;;;;;3.42;3.13;;;23.90;45.40;;;;;;5031131;28;20202;-40
2021/09/07 02:58:50;;;;;;;3.13;2.83;;;23.90;45.40;;;;;;5029060;28;20206;-37
2021/09/07 03:01:16;;;;;;;2.70;2.50;;;23.90;45.40;;;;;;5029663;28;20217;-40
2021/09/07 03:03:43;;;;;;;2.92;2.50;;;23.90;45.40;;;;;;5033096;28;20222;-42
2021/09/07 03:06:09;;;;;;;2.70;2.50;;;23.90;45.40;;;;;;5031988;28;20226;-41
2021/09/07 03:08:35;;;;;;;3.17;2.88;;;23.90;45.40;;;;;;5031658;28;20274;-37
2021/09/07 03:11:02;;;;;;;3.35;3.05;;;23.90;45.40;;;;;;5031431;28;20542;-36
2021/09/07 03:13:28;;;;;;;3.38;3.08;;;23.90;45.40;;;;;;5032764;28;20210;-39
2021/09/07 03:15:55;;;;;;;2.88;2.60;;;23.90;45.40;;;;;;5031130;28;20203;-38
2021/09/07 03:18:21;;;;;;;3.35;3.05;;;23.90;45.40;;;;;;5030249;28;20205;-38
2021/09/07 03:20:48;;;;;;;3.15;2.85;;;23.90;45.40;;;;;;5032439;28;20225;-39
2021/09/07 03:23:14;;;;;;;3.20;3.00;;;23.90;45.40;;;;;;5032117;28;20206;-39
2021/09/07 03:25:41;;;;;;;2.90;2.70;;;23.90;45.40;;;;;;5020450;28;20227;-40
2021/09/07 03:28:07;;;;;;;3.22;2.90;;;23.90;45.60;;;;;;5031165;28;20290;-40
2021/09/07 03:30:33;;;;;;;3.78;2.80;;;23.90;45.70;;;;;;5030331;28;20204;-39
2021/09/07 03:33:00;;;;;;;2.92;2.63;;;23.90;45.70;;;;;;5032270;28;20217;-43
2021/09/07 03:35:27;;;;;;;3.30;2.50;;;23.90;45.70;;;;;;5031597;28;20241;-38
2021/09/07 03:37:53;;;;;;;2.65;2.45;;;23.90;45.70;;;;;;5030973;28;20216;-37
2021/09/07 03:40:20;;;;;;;2.78;2.50;;;23.90;45.70;;;;;;5030021;28;20289;-41
2021/09/07 03:42:46;;;;;;;3.05;2.80;;;23.90;45.70;;;;;;5032430;28;20297;-37
2021/09/07 03:45:13;;;;;;;3.30;3.00;;;23.90;45.70;;;;;;5030335;28;20309;-38
2021/09/07 03:47:40;;;;;;;2.85;2.65;;;23.90;45.70;;;;;;5029094;28;20296;-37
2021/09/07 03:50:06;;;;;;;3.58;2.90;;;23.90;45.70;;;;;;5032078;28;20201;-38
2021/09/07 03:52:33;;;;;;;2.63;2.42;;;23.90;45.70;;;;;;5031469;28;20206;-37
2021/09/07 03:54:59;;;;;;;2.90;2.58;;;23.90;45.70;;;;;;5031919;28;20218;-37
2021/09/07 03:57:26;;;;;;;3.13;2.83;;;23.90;45.70;;;;;;5030014;28;20205;-39
2021/09/07 03:59:53;;;;;;;2.80;2.60;;;23.90;45.70;;;;;;5031074;28;20293;-41
2021/09/07 04:02:20;;;;;;;2.95;2.75;;;23.90;45.70;;;;;;5030688;28;20209;-37
2021/09/07 04:04:46;;;;;;;3.13;2.83;;;23.90;45.70;;;;;;5031905;28;20305;-38
2021/09/07 04:07:13;;;;;;;3.63;2.83;;;23.90;45.70;;;;;;5029806;28;20244;-40
2021/09/07 04:09:39;;;;;;;3.90;2.65;;;23.90;45.70;;;;;;5030902;28;20217;-40
2021/09/07 04:12:05;;;;;;;2.80;2.53;;;23.90;45.70;;;;;;5029726;28;20207;-44
2021/09/07 04:14:32;;;;;;;3.15;2.85;;;23.90;45.70;;;;;;5031505;28;20230;-40
2021/09/07 04:16:58;;;;;;;3.88;2.78;;;23.90;45.70;;;;;;5030181;28;20194;-38
2021/09/07 04:19:25;;;;;;;2.92;2.65;;;23.90;45.70;;;;;;5028634;28;20217;-37
2021/09/07 04:21:51;;;;;;;3.35;2.90;;;23.90;45.70;;;;;;5031369;28;20199;-37
2021/09/07 04:24:18;;;;;;;2.85;2.60;;;23.90;45.70;;;;;;5030750;28;20218;-38
2021/09/07 04:26:44;;;;;;;3.55;2.92;;;23.90;45.70;;;;;;5029336;28;20233;-37
2021/09/07 04:29:10;;;;;;;2.60;2.40;;;23.90;45.70;;;;;;5028233;28;20204;-41
2021/09/07 04:31:37;;;;;;;2.55;2.35;;;23.90;45.70;;;;;;5031361;28;20198;-37
2021/09/07 04:34:04;;;;;;;3.75;2.45;;;23.90;45.70;;;;;;5030150;28;20546;-38
2021/09/07 04:36:31;;;;;;;2.78;2.58;;;23.90;45.70;;;;;;5030373;28;20681;-40
2021/09/07 04:38:57;;;;;;;3.67;2.50;;;23.90;45.80;;;;;;5029700;28;20671;-37
2021/09/07 04:41:23;;;;;;;3.45;2.50;;;23.90;45.90;;;;;;5030324;28;20194;-38
2021/09/07 04:43:50;;;;;;;3.15;2.85;;;23.90;46.00;;;;;;5030221;28;20313;-37
2021/09/07 04:46:17;;;;;;;3.53;2.78;;;23.90;46.00;;;;;;5030631;28;20313;-37
2021/09/07 04:48:43;;;;;;;4.97;2.67;;;23.90;46.00;;;;;;5029886;28;20206;-37
2021/09/07 04:51:10;;;;;;;2.50;2.30;;;23.90;46.00;;;;;;5028739;28;20206;-38
2021/09/07 04:53:36;;;;;;;3.55;2.70;;;23.90;46.00;;;;;;5030739;28;20223;-37
2021/09/07 04:56:03;;;;;;;3.42;2.75;;;23.90;46.00;;;;;;5029938;28;20203;-38
2021/09/07 04:58:29;;;;;;;3.95;3.17;;;23.90;46.00;;;;;;5029570;28;20306;-37
2021/09/07 05:00:55;;;;;;;2.70;2.50;;;23.90;46.00;;;;;;5021921;28;20712;-38
2021/09/07 05:03:22;;;;;;;2.83;2.63;;;23.90;46.00;;;;;;5030822;28;20713;-37
2021/09/07 05:05:49;;;;;;;3.08;2.78;;;23.90;45.90;;;;;;5029145;28;20226;-41
2021/09/07 05:08:15;;;;;;;2.97;2.50;;;23.90;45.90;;;;;;5029549;28;20194;-38
2021/09/07 05:10:42;;;;;;;2.92;2.72;;;23.90;45.90;;;;;;5028917;28;20203;-41
2021/09/07 05:13:08;;;;;;;2.63;2.42;;;23.90;45.90;;;;;;5029848;28;20194;-38
2021/09/07 05:15:34;;;;;;;3.55;2.67;;;23.90;45.90;;;;;;5028295;28;20202;-38
2021/09/07 05:18:01;;;;;;;2.50;2.30;;;23.90;45.90;;;;;;5030294;28;20206;-39
2021/09/07 05:20:27;;;;;;;3.13;2.55;;;23.90;45.90;;;;;;5028682;28;20202;-41
2021/09/07 05:22:54;;;;;;;2.78;2.58;;;23.90;45.90;;;;;;5030304;28;20230;-39
2021/09/07 05:25:20;;;;;;;2.45;2.25;;;23.90;45.80;;;;;;5029729;28;20198;-40
2021/09/07 05:27:48;;;;;;;3.05;2.85;;;23.90;45.90;;;;;;5028240;28;20240;-38
2021/09/07 05:30:15;;;;;;;3.47;3.17;;;23.90;45.80;;;;;;5029111;28;20203;-38
2021/09/07 05:32:41;;;;;;;2.70;2.50;;;23.90;45.80;;;;;;5029496;28;20233;-40
2021/09/07 05:35:07;;;;;;;4.30;2.90;;;23.90;45.80;;;;;;5030146;28;20276;-38
2021/09/07 05:37:38;;;;;;;2.90;2.63;;;23.90;45.80;;;;;;5028869;28;20208;-39
2021/09/07 05:40:05;;;;;;;2.83;2.63;;;23.90;45.80;;;;;;5029154;28;20594;-38
2021/09/07 05:42:31;;;;;;;3.45;3.15;;;23.90;45.80;;;;;;5029391;28;20518;-40
2021/09/07 05:44:58;;;;;;;3.45;2.45;;;23.90;45.80;;;;;;5029971;28;20596;-38
2021/09/07 05:47:24;;;;;;;3.00;2.70;;;23.90;45.80;;;;;;5028831;28;20590;-38
2021/09/07 05:49:50;;;;;;;3.42;3.13;;;23.90;45.80;;;;;;5029680;28;20555;-41
2021/09/07 05:52:17;;;;;;;3.00;2.75;;;23.90;45.70;;;;;;5027691;28;20646;-39
2021/09/07 05:54:43;;;;;;;3.10;2.80;;;23.90;45.70;;;;;;5029984;28;20675;-41
2021/09/07 05:57:10;;;;;;;3.15;2.67;;;23.90;45.70;;;;;;5029512;28;20645;-41
2021/09/07 05:59:36;;;;;;;2.97;2.33;;;23.90;45.70;;;;;;5028278;28;20226;-38
2021/09/07 06:02:03;;;;;;;2.67;2.33;;;23.90;45.70;;;;;;5028871;28;20278;-40
2021/09/07 06:04:29;;;;;;;2.85;2.47;;;23.90;45.70;;;;;;5028946;28;20218;-40
2021/09/07 06:06:56;;;;;;;3.20;2.90;;;23.90;45.70;;;;;;5029436;28;20226;-38
2021/09/07 06:09:22;;;;;;;2.53;2.33;;;23.90;45.70;;;;;;5028696;28;20194;-38
2021/09/07 06:11:48;;;;;;;3.28;2.60;;;23.90;45.70;;;;;;5029515;28;20241;-37
2021/09/07 06:14:15;;;;;;;3.42;2.53;;;23.90;45.70;;;;;;5029131;28;20230;-37
2021/09/07 06:16:41;;;;;;;3.33;2.50;;;23.90;45.70;;;;;;5029414;28;20232;-39
2021/09/07 06:19:08;;;;;;;2.60;2.40;;;23.90;45.70;;;;;;5028413;28;20221;-39
2021/09/07 06:21:34;;;;;;;2.75;2.45;;;23.90;45.70;;;;;;5031640;28;20202;-37
2021/09/07 06:24:01;;;;;;;2.42;2.22;;;23.90;45.70;;;;;;5033392;28;20218;-37
2021/09/07 06:26:27;;;;;;;4.65;3.15;;;23.90;45.70;;;;;;5032765;28;20572;-41
2021/09/07 06:28:54;;;;;;;2.67;2.40;;;23.90;45.70;;;;;;5032789;28;20297;-38
2021/09/07 06:31:20;;;;;;;2.50;2.30;;;23.90;45.70;;;;;;5032151;28;20194;-41
2021/09/07 06:33:46;;;;;;;3.60;3.30;;;23.90;45.70;;;;;;5033224;28;20218;-40
2021/09/07 06:36:13;;;;;;;2.92;2.60;;;23.90;45.70;;;;;;5032142;28;20198;-44
2021/09/07 06:38:40;;;;;;;3.17;2.88;;;23.90;45.70;;;;;;5032772;28;20277;-41
2021/09/07 06:41:07;;;;;;;3.03;2.72;;;23.90;45.60;;;;;;5032643;28;20206;-40
2021/09/07 06:43:34;;;;;;;2.60;2.40;;;23.90;45.60;;;;;;5033081;28;20675;-38
2021/09/07 06:46:00;;;;;;;3.03;2.58;;;23.90;45.60;;;;;;5032195;28;20195;-40
2021/09/07 06:48:26;;;;;;;2.60;2.40;;;23.90;45.60;;;;;;5032351;28;20201;-39
2021/09/07 06:50:53;;;;;;;3.10;2.70;;;23.90;45.60;;;;;;5032353;28;20205;-39
2021/09/07 06:53:19;;;;;;;2.42;2.22;;;23.90;45.60;;;;;;5027601;28;20226;-41
2021/09/07 06:55:46;;;;;;;2.60;2.40;;;23.90;45.60;;;;;;5026193;28;20306;-44
2021/09/07 06:58:12;;;;;;;2.70;2.50;;;23.90;45.60;;;;;;5025336;28;20202;-52
2021/09/07 07:00:39;;;;;;;2.60;2.40;;;23.90;46.00;;;;;;5026238;28;20285;-44
2021/09/07 07:03:05;;;;;;;3.45;2.80;;;24.00;45.90;;;;;;5026238;28;20977;-40
2021/09/07 07:05:32;;;;;;;3.03;2.25;;;24.00;46.10;;;;;;5026682;28;20206;-42
2021/09/07 07:07:58;;;;;;;2.60;2.40;;;24.00;46.20;;;;;;5024813;28;20709;-38
2021/09/07 07:10:24;;;;;;;4.80;2.55;;;24.00;46.20;;;;;;5028555;28;20257;-41
2021/09/07 07:12:51;;;;;;;3.17;2.58;;;24.00;46.70;;;;;;5022715;28;20254;-47
2021/09/07 07:15:17;;;;;;;3.20;2.75;;;24.00;46.30;;;;;;5026165;28;20214;-41
2021/09/07 07:17:44;;;;;;;4.03;2.70;;;24.00;46.50;;;;;;5025771;28;20214;-41
2021/09/07 07:20:10;;;;;;;4.90;2.50;;;24.10;47.20;;;;;;5026305;28;20201;-44
2021/09/07 07:22:37;;;;;;;6.82;2.70;;;24.10;47.10;;;;;;5026637;28;20229;-43
2021/09/07 07:25:03;;;;;;;4.65;3.10;;;24.10;46.90;;;;;;5025207;28;20200;-42
2021/09/07 07:27:30;;;;;;;7.72;3.80;;;24.10;47.20;;;;;;5025200;28;20321;-43
2021/09/07 07:29:56;;;;;;;5.13;3.50;;;24.10;47.60;;;;;;5028561;28;20295;-40
2021/09/07 07:32:22;;;;;;;5.57;3.60;;;24.10;47.80;;;;;;5024515;28;20198;-39
2021/09/07 07:34:49;;;;;;;6.70;4.18;;;24.20;48.20;;;;;;5032420;28;20272;-36
2021/09/07 07:37:15;;;;;;;5.50;3.60;;;24.20;48.50;;;;;;5032031;28;20213;-41
2021/09/07 07:39:42;;;;;;;7.55;4.05;;;24.20;48.70;;;;;;5032187;28;20629;-40
2021/09/07 07:42:08;;;;;;;4.93;3.72;;;24.20;48.60;;;;;;5032099;28;20673;-40
2021/09/07 07:44:35;;;;;;;12.52;4.93;;;24.20;47.80;;;;;;5027075;28;20647;-38
2021/09/07 07:47:01;;;;;;;10.80;4.85;;;24.20;48.50;;;;;;5031421;28;20225;-39
2021/09/07 07:49:28;;;;;;;12.77;4.72;;;24.20;49.30;;;;;;5032642;28;20202;-42
2021/09/07 07:51:55;;;;;;;13.00;8.25;;;24.20;49.50;;;;;;5032295;28;20198;-41
2021/09/07 07:54:22;;;;;;;12.32;7.88;;;24.20;48.60;;;;;;5030237;28;20595;-44
2021/09/07 07:56:48;;;;;;;9.85;7.40;;;23.90;47.20;;;;;;5031627;28;20293;-46
2021/09/07 07:59:15;;;;;;;9.50;7.72;;;23.80;46.30;;;;;;5032026;28;20206;-43
2021/09/07 08:01:41;;;;;;;11.65;8.35;;;23.60;44.80;;;;;;5032095;28;20622;-42
2021/09/07 08:04:08;;;;;;;9.13;7.82;;;23.40;44.70;;;;;;5032129;28;20535;-42
2021/09/07 08:06:35;;;;;;;8.52;7.63;;;23.20;44.00;;;;;;5031143;28;20583;-41
2021/09/07 08:09:01;;;;;;;10.85;8.00;;;23.20;44.60;;;;;;5031670;28;20541;-41
2021/09/07 08:11:28;;;;;;;9.98;8.60;;;23.30;44.60;;;;;;5031612;28;20253;-48
2021/09/07 08:13:54;;;;;;;9.52;8.52;;;23.40;43.60;;;;;;5031787;28;20240;-37
2021/09/07 08:16:21;;;;;;;11.43;8.00;;;23.40;44.80;;;;;;5034323;28;20202;-40
2021/09/07 08:18:48;;;;;;;8.52;7.72;;;23.40;44.70;;;;;;5030575;28;20226;-40
2021/09/07 08:21:14;;;;;;;8.95;7.88;;;23.50;45.20;;;;;;5029456;28;20202;-37
2021/09/07 08:23:41;;;;;;;11.65;7.45;;;23.60;45.70;;;;;;5013414;28;20235;-38
2021/09/07 08:26:07;;;;;;;8.38;6.70;;;23.60;45.70;;;;;;5026524;28;20200;-42
2021/09/07 08:28:34;;;;;;;7.93;6.78;;;23.70;46.00;;;;;;5030825;28;20269;-37
2021/09/07 08:31:00;;;;;;;7.90;7.10;;;23.70;46.10;;;;;;5030022;28;20212;-39
2021/09/07 08:33:27;;;;;;;6.93;6.22;;;23.70;46.30;;;;;;5031487;28;20272;-43
2021/09/07 08:35:53;;;;;;;7.10;6.38;;;23.80;46.40;;;;;;5031396;28;20233;-39
2021/09/07 08:38:19;;;;;;;6.93;6.07;;;23.80;46.60;;;;;;5028276;28;20213;-37
2021/09/07 08:40:46;;;;;;;6.60;5.88;;;23.80;46.70;;;;;;5018850;28;20488;-40
2021/09/07 08:43:12;;;;;;;6.97;6.07;;;23.80;46.70;;;;;;5019381;28;20230;-42
2021/09/07 08:45:39;;;;;;;6.30;5.70;;;23.80;46.80;;;;;;5031229;28;20293;-37
2021/09/07 08:48:06;;;;;;;6.38;5.78;;;23.90;46.90;;;;;;5024121;28;20232;-38
2021/09/07 08:50:32;;;;;;;6.70;5.95;;;23.90;47.00;;;;;;5021019;28;20198;-40
2021/09/07 08:52:59;;;;;;;6.00;5.40;;;23.90;47.10;;;;;;5024556;28;20218;-46
2021/09/07 08:55:26;;;;;;;6.90;5.40;;;23.90;47.10;;;;;;5023246;28;20653;-37
2021/09/07 08:57:52;;;;;;;6.10;4.95;;;23.90;47.30;;;;;;5023850;28;20199;-38
2021/09/07 09:00:19;;;;;;;7.40;5.60;;;23.90;47.40;;;;;;5021911;28;20552;-36
2021/09/07 09:02:45;;;;;;;6.20;5.13;;;23.90;47.60;;;;;;5030621;28;20581;-41
2021/09/07 09:05:12;;;;;;;5.43;4.72;;;24.00;47.70;;;;;;5030070;28;20199;-36
2021/09/07 09:07:38;;;;;;;5.95;4.70;;;24.00;47.70;;;;;;5030790;28;20222;-44
2021/09/07 09:10:04;;;;;;;6.18;4.60;;;24.00;47.30;;;;;;5031422;28;20206;-36
2021/09/07 09:12:31;;;;;;;6.03;4.35;;;24.00;47.30;;;;;;5031084;28;20214;-40
2021/09/07 09:14:58;;;;;;;6.32;5.03;;;24.00;47.40;;;;;;5030460;28;20202;-46
2021/09/07 09:17:24;;;;;;;4.53;4.03;;;24.00;47.20;;;;;;5021139;28;20556;-39
2021/09/07 09:19:50;;;;;;;7.07;4.22;;;24.00;47.20;;;;;;5029348;28;20202;-39
2021/09/07 09:22:17;;;;;;;7.85;4.25;;;24.00;47.70;;;;;;5028978;28;20218;-39
2021/09/07 09:24:43;;;;;;;5.68;4.57;;;24.00;47.50;;;;;;5021201;28;20199;-39
2021/09/07 09:27:11;;;;;;;8.40;4.93;;;24.00;47.40;;;;;;5021856;28;20330;-36
2021/09/07 09:29:37;;;;;;;6.15;4.78;;;24.00;47.70;;;;;;5023177;28;20233;-37
2021/09/07 09:32:04;;;;;;;8.98;4.70;;;24.00;47.70;;;;;;5023618;28;20214;-36
2021/09/07 09:34:30;;;;;;;5.70;4.20;;;24.10;47.70;;;;;;5022873;28;20218;-49
2021/09/07 09:36:57;;;;;;;6.85;4.47;;;24.10;47.80;;;;;;5020298;28;20213;-44
2021/09/07 09:39:23;;;;;;;4.25;3.85;;;24.10;47.80;;;;;;5021363;28;20206;-40
2021/09/07 09:41:50;;;;;;;6.63;4.40;;;24.10;47.80;;;;;;5023346;28;20222;-39
2021/09/07 09:44:16;;;;;;;5.85;4.50;;;24.10;47.80;;;;;;5023065;28;20479;-38
2021/09/07 09:46:42;;;;;;;7.78;4.68;;;24.10;47.80;;;;;;5020034;28;20208;-37
2021/09/07 09:49:09;;;;;;;5.90;4.45;;;24.10;47.80;;;;;;5028948;28;20302;-37
2021/09/07 09:51:35;;;;;;;4.68;4.18;;;24.10;47.80;;;;;;5017007;28;20223;-40
2021/09/07 09:54:02;;;;;;;6.97;4.78;;;24.10;47.80;;;;;;5025805;28;20198;-36
2021/09/07 09:56:28;;;;;;;6.07;4.25;;;24.10;47.80;;;;;;5033788;28;20209;-37
2021/09/07 09:58:55;;;;;;;4.82;4.30;;;24.10;47.80;;;;;;5034448;28;20209;-37
2021/09/07 10:01:21;;;;;;;5.68;4.40;;;24.10;47.80;;;;;;5034869;28;20204;-36
2021/09/07 10:03:48;;;;;;;5.57;4.05;;;24.10;47.80;;;;;;5034977;28;20206;-35
2021/09/07 10:06:14;;;;;;;5.40;4.35;;;24.10;47.80;;;;;;5034248;28;20202;-36
2021/09/07 10:08:40;;;;;;;4.70;4.30;;;24.10;47.80;;;;;;5034265;28;20238;-36
2021/09/07 10:11:07;;;;;;;6.15;4.65;;;24.10;47.80;;;;;;5034044;28;20606;-36
2021/09/07 10:13:33;;;;;;;5.63;4.50;;;24.10;47.80;;;;;;5034808;28;20325;-39
2021/09/07 10:16:02;;;;;;;4.18;3.80;;;24.10;47.80;;;;;;5034579;28;20298;-37
2021/09/07 10:21:17;;;;;;;4.43;3.85;;;24.10;47.80;;;;;;5030709;28;20651;-37
2021/09/07 10:23:49;;;;;;;5.32;4.82;;;24.10;47.80;;;;;;5032657;28;20292;-36
2021/09/07 10:26:15;;;;;;;5.45;4.40;;;24.10;47.50;;;;;;5016250;28;20568;-36
2021/09/07 10:28:42;;;;;;;5.50;4.43;;;24.10;47.70;;;;;;5029428;28;20702;-36
2021/09/07 10:31:09;;;;;;;4.80;4.38;;;24.10;47.70;;;;;;5034354;28;20202;-37
2021/09/07 10:33:35;;;;;;;5.60;4.75;;;24.10;47.70;;;;;;5033781;28;20207;-36
2021/09/07 10:36:02;;;;;;;5.22;4.28;;;24.10;47.60;;;;;;5024182;28;20209;-37
2021/09/07 10:38:28;;;;;;;4.72;4.07;;;24.10;47.50;;;;;;5033525;28;20289;-45
2021/09/07 10:40:55;;;;;;;4.70;4.30;;;24.10;47.60;;;;;;5034724;28;20199;-39
2021/09/07 10:43:21;;;;;;;4.85;4.30;;;24.10;47.50;;;;;;5033942;28;20225;-45
2021/09/07 10:45:48;;;;;;;5.50;4.50;;;24.10;47.50;;;;;;5034167;28;20292;-36
2021/09/07 10:48:14;;;;;;;5.32;4.35;;;24.10;47.60;;;;;;5033201;28;20225;-39
2021/09/07 10:50:41;;;;;;;4.43;4.00;;;24.10;47.60;;;;;;5033659;28;20203;-48
2021/09/07 10:53:07;;;;;;;4.22;3.88;;;24.10;47.50;;;;;;5033689;28;20302;-41
2021/09/07 10:55:33;;;;;;;4.13;3.70;;;24.10;47.60;;;;;;5033852;28;20936;-36
2021/09/07 10:58:02;;;;;;;4.97;4.40;;;24.10;47.50;;;;;;5033119;28;20213;-37
2021/09/07 11:00:29;;;;;;;6.22;4.35;;;24.10;47.50;;;;;;5032820;28;20724;-36
2021/09/07 11:02:55;;;;;;;5.03;4.53;;;24.10;47.50;;;;;;5018004;28;20219;-36
2021/09/07 11:05:22;;;;;;;4.55;4.13;;;24.10;47.50;;;;;;5014294;28;20207;-36
2021/09/07 11:07:48;;;;;;;4.22;3.85;;;24.10;47.40;;;;;;5028571;28;20236;-36
2021/09/07 11:10:15;;;;;;;5.35;4.50;;;24.10;47.40;;;;;;5033677;28;20225;-35
2021/09/07 11:12:41;;;;;;;4.50;4.13;;;24.10;47.30;;;;;;5033532;28;20248;-36
2021/09/07 11:15:08;;;;;;;4.57;3.90;;;24.10;47.30;;;;;;5033022;28;20553;-41
2021/09/07 11:17:34;;;;;;;4.57;4.18;;;24.10;47.30;;;;;;5032961;28;20305;-35
2021/09/07 11:20:00;;;;;;;4.15;3.75;;;24.10;47.20;;;;;;5033463;28;20205;-38
2021/09/07 11:22:27;;;;;;;5.07;4.57;;;24.10;47.20;;;;;;5033417;28;20233;-41
2021/09/07 11:24:54;;;;;;;4.60;4.20;;;24.10;47.20;;;;;;5032287;28;20253;-37
2021/09/07 11:27:20;;;;;;;5.15;4.35;;;24.10;47.20;;;;;;5031448;28;20226;-46
2021/09/07 11:29:46;;;;;;;4.35;3.95;;;24.10;47.20;;;;;;5033262;28;20213;-39
2021/09/07 11:32:13;;;;;;;4.82;4.32;;;24.10;47.10;;;;;;5032716;28;20221;-36
2021/09/07 11:34:40;;;;;;;4.50;4.10;;;24.10;47.10;;;;;;5032908;28;20228;-36
2021/09/07 11:37:06;;;;;;;4.50;4.10;;;24.10;47.00;;;;;;5032065;28;20336;-45
2021/09/07 11:39:33;;;;;;;5.18;4.30;;;24.10;47.00;;;;;;5033302;28;20256;-47
2021/09/07 11:41:59;;;;;;;4.95;4.13;;;24.10;47.10;;;;;;5032272;28;20244;-37
2021/09/07 11:44:25;;;;;;;4.53;4.03;;;24.10;47.00;;;;;;5032858;28;20213;-42
2021/09/07 11:46:52;;;;;;;4.25;3.80;;;24.10;47.00;;;;;;5032026;28;20202;-40
2021/09/07 11:49:19;;;;;;;5.13;3.85;;;24.10;47.00;;;;;;5032773;28;20270;-38
2021/09/07 11:51:46;;;;;;;4.10;3.72;;;24.10;46.90;;;;;;5032784;28;20229;-41
2021/09/07 11:54:12;;;;;;;4.57;4.18;;;24.10;46.90;;;;;;5032749;28;20685;-37
2021/09/07 11:56:39;;;;;;;4.43;4.03;;;24.10;46.90;;;;;;5032028;28;20634;-40
2021/09/07 11:59:06;;;;;;;4.28;3.60;;;24.10;46.90;;;;;;5032542;28;20214;-40
2021/09/07 12:01:33;;;;;;;4.22;3.85;;;24.10;46.80;;;;;;5032648;28;20225;-46
2021/09/07 12:04:00;;;;;;;4.10;3.80;;;24.10;46.80;;;;;;5032142;28;20245;-36
2021/09/07 12:06:26;;;;;;;4.32;3.92;;;24.10;46.80;;;;;;5032037;28;20230;-43
2021/09/07 12:08:52;;;;;;;4.35;3.95;;;24.10;46.80;;;;;;5032816;28;20230;-40
2021/09/07 12:11:19;;;;;;;5.60;4.22;;;24.10;46.80;;;;;;5032045;28;20222;-37
2021/09/07 12:13:45;;;;;;;4.72;4.05;;;24.10;46.80;;;;;;5045509;23;20264;-40
2021/09/07 12:16:12;;;;;;;4.57;4.18;;;24.10;46.70;;;;;;5031917;28;20213;-40
2021/09/07 12:18:38;;;;;;;5.38;4.40;;;24.10;46.70;;;;;;5031792;28;20205;-39
2021/09/07 12:21:05;;;;;;;4.18;3.78;;;24.10;46.80;;;;;;5031982;28;20218;-39
2021/09/07 12:23:31;;;;;;;4.63;4.22;;;24.10;46.70;;;;;;5030404;28;20190;-39
2021/09/07 12:25:57;;;;;;;4.43;4.03;;;24.20;46.70;;;;;;5032015;28;20297;-41
2021/09/07 12:28:24;;;;;;;5.55;3.90;;;24.10;47.30;;;;;;5031309;28;20236;-39
2021/09/07 12:30:50;;;;;;;4.60;4.20;;;24.20;46.70;;;;;;5031701;28;20309;-42
2021/09/07 12:33:18;;;;;;;4.68;4.15;;;24.10;46.60;;;;;;5031222;28;20208;-41
2021/09/07 12:35:44;;;;;;;4.72;4.25;;;24.10;46.60;;;;;;5031959;28;20234;-39
2021/09/07 12:38:11;;;;;;;4.45;4.03;;;24.20;46.70;;;;;;5031376;28;20202;-41
2021/09/07 12:40:37;;;;;;;4.60;4.20;;;24.10;46.60;;;;;;5031592;28;20209;-42
2021/09/07 12:43:04;;;;;;;4.47;4.07;;;24.20;46.70;;;;;;5031220;28;20222;-40